• Join FlightAware (Why Join?)
  • Login
  • US Flag 
04:31PM EDT


 

Airport Tracker/Info


-or-


 

Live Flight TrackerFlight Track Log ✈ SWA3924 ✈ 24-Apr-2013 ✈ KMCO - KBNA

Flight Track Log - Related Links

Times and Time Zones

All times are in EDT time to prevent confusion due to time zone crossing. See the SWA3924 flight status page for this flight to view local times or setup timezone preferences in your user account.

Time Position Orientation Groundspeed Altitude Reporting Facility
EDT Latitude Longitude Course Direction KTS MPH feet Rate Location/Type
01:13PM 28.4000 -81.3000 270° West 162 186 800  Level Orlando TRACON
01:14PM 28.3667 -81.3167 204° Southwest 200 230 2,300 2,820 Climbing Orlando TRACON
01:16PM 28.3386 -81.4989 260° West 280 322 10,200 3,000 Climbing Jacksonville Center
01:17PM 28.3542 -81.5953 280° West 292 336 12,700 2,520 Climbing Jacksonville Center
01:18PM 28.3719 -81.7083 280° West 335 386 15,300 2,640 Climbing Jacksonville Center
01:19PM 28.4167 -81.9675 270° West  Level FlightAware Approximate
01:19PM 28.3917 -81.8236 281° West 364 419 18,100  Level Jacksonville Center
01:20PM 28.4092 -81.9344 280° West 388 447 20,900 2,640 Climbing Jacksonville Center
01:21PM 28.4331 -82.0569 283° West 393 452 23,400 2,400 Climbing Jacksonville Center
01:22PM 28.4714 -82.1747 290° West 398 458 25,700 2,040 Climbing Jacksonville Center
01:24PM 28.4338 -82.2953 250° West  Level FlightAware Approximate
01:24PM 28.6475 -82.3436 250° West 398 458 29,600  Level Jacksonville Center
01:25PM 28.7439 -82.4167 326° Northwest 405 466 30,000 540 Climbing Jacksonville Center
01:26PM 28.8442 -82.4872 328° Northwest 417 480 30,800 1,200 Climbing Jacksonville Center
01:27PM 28.9447 -82.5603 328° Northwest 422 486 32,400 1,800 Climbing Jacksonville Center
01:28PM 29.0386 -82.6336 326° Northwest 422 486 34,400 1,980 Climbing Jacksonville Center
01:29PM 29.1350 -82.7047 327° Northwest 416 479 36,400 1,800 Climbing Jacksonville Center
01:30PM 29.2247 -82.7736 326° Northwest 409 471 38,000 780 Climbing Jacksonville Center
01:31PM 29.3167 -82.8403 328° Northwest 398 458 38,000  Level Jacksonville Center
01:32PM 29.4064 -82.9069 327° Northwest 393 452 38,000  Level Jacksonville Center
01:33PM 29.5044 -82.9808 327° Northwest 393 452 38,000  Level Jacksonville Center
01:34PM 29.5961 -83.0478 328° Northwest 391 450 38,000  Level Jacksonville Center
01:35PM 29.6986 -83.0983 337° Northwest 391 450 38,000  Level Jacksonville Center
01:36PM 29.7986 -83.1439 338° Northwest 391 450 38,000  Level Jacksonville Center
01:37PM 29.8967 -83.1872 339° North 391 450 38,000  Level Jacksonville Center
01:38PM 29.9989 -83.2381 337° Northwest 391 450 38,000  Level Jacksonville Center
01:39PM 30.0989 -83.2839 338° Northwest 391 450 38,000  Level Jacksonville Center
01:40PM 30.2011 -83.3300 339° North 391 450 38,000  Level Jacksonville Center
01:41PM 30.3011 -83.3761 338° Northwest 391 450 38,000  Level Jacksonville Center
01:42PM 30.4011 -83.4225 338° Northwest 391 450 38,000  Level Jacksonville Center
01:43PM 30.5011 -83.4689 338° Northwest 391 450 38,000  Level Jacksonville Center
01:44PM 30.6033 -83.5178 338° Northwest 391 450 38,000  Level Jacksonville Center
01:45PM 30.7011 -83.5642 338° Northwest 391 450 38,000  Level Jacksonville Center
01:46PM 30.7989 -83.6133 337° Northwest 385 443 38,000  Level Jacksonville Center
01:47PM 30.9011 -83.6575 340° North 385 443 38,000  Level Jacksonville Center
01:48PM 30.9989 -83.7069 337° Northwest 385 443 38,000  Level Jacksonville Center
01:49PM 31.1031 -83.7564 338° Northwest 390 449 38,000  Level Jacksonville Center
01:50PM 31.2008 -83.8058 337° Northwest 390 449 38,000  Level Jacksonville Center
01:53PM 31.4439 -83.9219 338° Northwest 375 432 38,000  Level Atlanta Center
01:54PM 31.5442 -83.9683 338° Northwest 375 432 38,000  Level Atlanta Center
01:56PM 31.7675 -84.0169 350° North 397 457 38,000  Level Atlanta Center
01:57PM 31.8761 -84.0389 350° North 403 464 38,000 180 Level Atlanta Center
01:58PM 31.9867 -84.0633 349° North 403 464 38,400 780 Climbing Atlanta Center
01:59PM 32.0847 -84.0831 350° North 398 458 39,600 780 Climbing Atlanta Center
02:00PM 32.1911 -84.1100 348° North 392 451 40,000 180 Climbing Atlanta Center
02:01PM 32.2975 -84.1322 350° North 392 451 40,000  Level Atlanta Center
02:02PM 32.4083 -84.1569 349° North 392 451 40,000  Level Atlanta Center
02:03PM 32.5167 -84.1817 349° North 392 451 40,000  Level Atlanta Center
02:04PM 32.6231 -84.2067 349° North 392 451 40,000  Level Atlanta Center
02:05PM 32.7294 -84.2339 348° North 392 451 40,000  Level Atlanta Center
02:06PM 32.8528 -84.2589 350° North 392 451 40,000  Level Atlanta Center
02:07PM 32.9611 -84.2839 349° North 392 451 40,000  Level Atlanta Center
02:08PM 33.0739 -84.3089 349° North 392 451 40,000  Level Atlanta Center
02:09PM 33.1822 -84.3342 349° North 399 459 40,000  Level Atlanta Center
02:10PM 33.2928 -84.3594 349° North 399 459 40,000  Level Atlanta Center
02:11PM 33.4056 -84.3847 349° North 399 459 40,000  Level Atlanta Center
02:12PM 33.5161 -84.4100 349° North 399 459 40,000  Level Atlanta Center
02:13PM 33.6286 -84.4381 348° North 404 465 40,000  Level Atlanta Center
02:14PM 33.7372 -84.4833 341° North 399 459 40,000  Level Atlanta Center
02:15PM 33.8350 -84.5314 338° Northwest 393 452 40,000  Level Atlanta Center
02:16PM 33.9372 -84.5747 341° North 393 452 40,000  Level Atlanta Center
02:17PM 34.0372 -84.6178 340° North 387 445 40,000  Level Atlanta Center
02:18PM 34.1475 -84.6664 340° North 394 453 40,000  Level Atlanta Center
02:19PM 34.2475 -84.7122 339° North 401 461 40,000 -300 Level Atlanta Center
02:20PM 34.3367 -84.7758 330° Northwest 379 436 39,400 -840 Descending Atlanta Center
02:21PM 34.4283 -84.8422 329° Northwest 374 430 38,400 -1,020 Descending Atlanta Center
02:22PM 34.5236 -84.9161 327° Northwest 401 461 37,400 -960 Descending Atlanta Center
02:23PM 34.6214 -84.9878 329° Northwest 407 468 36,500 -900 Descending Atlanta Center
02:24PM 34.7147 -85.0622 327° Northwest 407 468 35,600 -960 Descending Atlanta Center
02:25PM 34.8161 -85.1419 327° Northwest 418 481 34,600 -1,320 Descending Atlanta Center
02:28PM 35.1158 -85.3742 328° Northwest 383 441 30,200 -1,560 Descending Memphis Center
02:29PM 35.1919 -85.4508 321° Northwest 362 417 28,000 -2,220 Descending Memphis Center
02:30PM 35.2556 -85.5311 314° West 340 391 25,800 -2,280 Descending Memphis Center
02:31PM 35.3192 -85.6114 314° West 328 377 23,500 -2,340 Descending Memphis Center
02:32PM 35.3783 -85.6869 314° West 323 372 21,200 -2,040 Descending Memphis Center
02:33PM 35.4375 -85.7625 314° West 323 372 19,500 -1,620 Descending Memphis Center
02:34PM 35.4989 -85.8458 312° West 311 358 18,000 -1,620 Descending Memphis Center
02:35PM 35.5556 -85.9167 315° West 299 344 16,300 -1,620 Descending Memphis Center
02:36PM 35.6061 -85.9881 311° West 299 344 14,800 -1,440 Descending Memphis Center
02:37PM 35.6542 -86.0469 315° West 281 323 13,500 -1,500 Descending Memphis Center
02:38PM 35.7022 -86.1133 312° West 275 316 11,800 -1,800 Descending Memphis Center
02:39PM 35.7383 -86.1958 298° West 270 311 9,900 -1,680 Descending Memphis Center
02:40PM 35.7742 -86.2708 301° West 259 298 8,500 -1,380 Descending Memphis Center
02:41PM 35.8081 -86.3486 298° West 259 298 7,200 -1,440 Descending Memphis Center
02:42PM 35.8442 -86.4339 298° West 254 292 5,700 -1,140 Descending Memphis Center
02:43PM 35.8736 -86.5067 297° West 254 292 5,000 -360 Descending Memphis Center
02:44PM 35.8961 -86.5644 296° West 224 258 5,000 -240 Level Memphis Center
02:45PM 35.9167 -86.6225 294° West 198 228 4,600 -780 Descending Memphis Center
02:46PM 35.9308 -86.6733 289° West 170 196 3,500 -900 Descending Memphis Center
02:47PM 35.9489 -86.7236 294° West 160 184 2,800 -540 Descending Memphis Center
02:48PM 35.9947 -86.7164 North 133 153 2,500 -360 Descending Memphis Center
02:49PM 36.0378 -86.6992 18° North 151 174 2,100 -600 Descending Memphis Center
02:50PM 36.0769 -86.6819 20° North 151 174 1,400 -720 Descending Memphis Center
02:51PM 36.1078 -86.6678 20° North 139 160 700 -720 Descending Memphis Center
02:53PM 36.1167 -86.6667 345° North  Level FlightAware Approximate
03:00PM 36.1245 -86.6782 345° North  Level Estimated
03:01PM 36.1245 -86.6782 345° North  Level Estimated
03:02PM 36.1245 -86.6782 345° North  Level Estimated
03:03PM 36.1245 -86.6782 345° North  Level Estimated